sensor_id;sensor_type;location;lat;lon;timestamp;pressure;altitude;pressure_sealevel;temperature
11321;BMP180;5715;48.234;14.320;2022-12-07T00:00:33;98424.00;;;12.20
11321;BMP180;5715;48.234;14.320;2022-12-07T00:03:20;98418.00;;;12.30
11321;BMP180;5715;48.234;14.320;2022-12-07T00:06:11;98426.00;;;12.20
11321;BMP180;5715;48.234;14.320;2022-12-07T00:08:59;98425.00;;;12.30
11321;BMP180;5715;48.234;14.320;2022-12-07T00:11:50;98425.00;;;12.30
11321;BMP180;5715;48.234;14.320;2022-12-07T00:14:38;98421.00;;;12.50
11321;BMP180;5715;48.234;14.320;2022-12-07T00:17:25;98415.00;;;12.50
11321;BMP180;5715;48.234;14.320;2022-12-07T00:20:13;98421.00;;;12.50
11321;BMP180;5715;48.234;14.320;2022-12-07T00:23:00;98420.00;;;12.60
11321;BMP180;5715;48.234;14.320;2022-12-07T00:25:48;98414.00;;;12.40
11321;BMP180;5715;48.234;14.320;2022-12-07T00:28:36;98411.00;;;12.50
11321;BMP180;5715;48.234;14.320;2022-12-07T00:31:29;98413.00;;;12.50
11321;BMP180;5715;48.234;14.320;2022-12-07T00:34:20;98408.00;;;12.50
11321;BMP180;5715;48.234;14.320;2022-12-07T00:37:08;98409.00;;;12.50
11321;BMP180;5715;48.234;14.320;2022-12-07T00:39:55;98420.00;;;12.50
11321;BMP180;5715;48.234;14.320;2022-12-07T00:42:43;98412.00;;;12.50
11321;BMP180;5715;48.234;14.320;2022-12-07T00:45:30;98415.00;;;12.50
11321;BMP180;5715;48.234;14.320;2022-12-07T00:48:18;98407.00;;;12.40
11321;BMP180;5715;48.234;14.320;2022-12-07T00:51:07;98410.00;;;12.30
11321;BMP180;5715;48.234;14.320;2022-12-07T00:53:55;98412.00;;;12.40
11321;BMP180;5715;48.234;14.320;2022-12-07T00:56:42;98409.00;;;12.40
11321;BMP180;5715;48.234;14.320;2022-12-07T00:59:30;98412.00;;;12.30
11321;BMP180;5715;48.234;14.320;2022-12-07T01:02:17;98409.00;;;12.40
11321;BMP180;5715;48.234;14.320;2022-12-07T01:05:05;98415.00;;;12.20
11321;BMP180;5715;48.234;14.320;2022-12-07T01:07:53;98409.00;;;12.30
11321;BMP180;5715;48.234;14.320;2022-12-07T01:10:41;98413.00;;;12.40
11321;BMP180;5715;48.234;14.320;2022-12-07T01:13:29;98414.00;;;12.20
11321;BMP180;5715;48.234;14.320;2022-12-07T01:16:18;98416.00;;;12.40
11321;BMP180;5715;48.234;14.320;2022-12-07T01:19:06;98421.00;;;12.20
11321;BMP180;5715;48.234;14.320;2022-12-07T01:21:53;98426.00;;;12.30
11321;BMP180;5715;48.234;14.320;2022-12-07T01:24:41;98418.00;;;12.40
11321;BMP180;5715;48.234;14.320;2022-12-07T01:27:28;98413.00;;;12.40
11321;BMP180;5715;48.234;14.320;2022-12-07T01:30:16;98416.00;;;12.20
11321;BMP180;5715;48.234;14.320;2022-12-07T01:33:03;98414.00;;;12.30
11321;BMP180;5715;48.234;14.320;2022-12-07T01:35:51;98411.00;;;12.40
11321;BMP180;5715;48.234;14.320;2022-12-07T01:38:39;98416.00;;;12.40
11321;BMP180;5715;48.234;14.320;2022-12-07T01:41:33;98400.00;;;12.50
11321;BMP180;5715;48.234;14.320;2022-12-07T01:44:28;98399.00;;;12.50
11321;BMP180;5715;48.234;14.320;2022-12-07T01:47:20;98399.00;;;12.30
11321;BMP180;5715;48.234;14.320;2022-12-07T01:50:08;98396.00;;;12.30
11321;BMP180;5715;48.234;14.320;2022-12-07T01:53:00;98393.00;;;12.40
11321;BMP180;5715;48.234;14.320;2022-12-07T01:55:52;98394.00;;;12.40
11321;BMP180;5715;48.234;14.320;2022-12-07T01:58:40;98399.00;;;12.30
11321;BMP180;5715;48.234;14.320;2022-12-07T02:01:28;98395.00;;;12.20
11321;BMP180;5715;48.234;14.320;2022-12-07T02:04:16;98399.00;;;12.00
11321;BMP180;5715;48.234;14.320;2022-12-07T02:07:05;98385.00;;;12.10
11321;BMP180;5715;48.234;14.320;2022-12-07T02:09:53;98393.00;;;12.00
11321;BMP180;5715;48.234;14.320;2022-12-07T02:12:42;98381.00;;;11.90
11321;BMP180;5715;48.234;14.320;2022-12-07T02:29:25;98375.00;;;12.20
11321;BMP180;5715;48.234;14.320;2022-12-07T02:32:48;98378.00;;;11.90
11321;BMP180;5715;48.234;14.320;2022-12-07T02:35:59;98370.00;;;12.20
11321;BMP180;5715;48.234;14.320;2022-12-07T02:39:01;98379.00;;;12.00
11321;BMP180;5715;48.234;14.320;2022-12-07T02:41:56;98377.00;;;12.10
11321;BMP180;5715;48.234;14.320;2022-12-07T02:44:47;98374.00;;;12.20
11321;BMP180;5715;48.234;14.320;2022-12-07T02:47:37;98374.00;;;12.10
11321;BMP180;5715;48.234;14.320;2022-12-07T02:50:26;98364.00;;;12.20
11321;BMP180;5715;48.234;14.320;2022-12-07T02:53:41;98370.00;;;12.20
11321;BMP180;5715;48.234;14.320;2022-12-07T03:09:38;98375.00;;;12.30
11321;BMP180;5715;48.234;14.320;2022-12-07T03:12:45;98374.00;;;12.20
11321;BMP180;5715;48.234;14.320;2022-12-07T03:15:43;98369.00;;;12.00
11321;BMP180;5715;48.234;14.320;2022-12-07T03:18:51;98375.00;;;12.20
11321;BMP180;5715;48.234;14.320;2022-12-07T03:21:46;98376.00;;;12.20
11321;BMP180;5715;48.234;14.320;2022-12-07T03:24:47;98370.00;;;12.00
11321;BMP180;5715;48.234;14.320;2022-12-07T03:27:56;98375.00;;;12.10
11321;BMP180;5715;48.234;14.320;2022-12-07T03:31:06;98368.00;;;12.30
11321;BMP180;5715;48.234;14.320;2022-12-07T03:37:07;98363.00;;;12.00
11321;BMP180;5715;48.234;14.320;2022-12-07T03:40:10;98374.00;;;12.00
11321;BMP180;5715;48.234;14.320;2022-12-07T03:43:02;98369.00;;;12.00
11321;BMP180;5715;48.234;14.320;2022-12-07T03:46:20;98372.00;;;12.00
11321;BMP180;5715;48.234;14.320;2022-12-07T03:55:28;98378.00;;;12.00
11321;BMP180;5715;48.234;14.320;2022-12-07T03:58:19;98381.00;;;12.00
11321;BMP180;5715;48.234;14.320;2022-12-07T04:01:07;98375.00;;;11.90
11321;BMP180;5715;48.234;14.320;2022-12-07T04:03:55;98384.00;;;11.80
11321;BMP180;5715;48.234;14.320;2022-12-07T04:06:43;98383.00;;;11.90
11321;BMP180;5715;48.234;14.320;2022-12-07T04:09:30;98375.00;;;11.80
11321;BMP180;5715;48.234;14.320;2022-12-07T04:12:18;98382.00;;;12.00
11321;BMP180;5715;48.234;14.320;2022-12-07T04:15:07;98382.00;;;11.80
11321;BMP180;5715;48.234;14.320;2022-12-07T04:17:54;98382.00;;;11.90
11321;BMP180;5715;48.234;14.320;2022-12-07T04:20:42;98380.00;;;12.10
11321;BMP180;5715;48.234;14.320;2022-12-07T04:23:29;98382.00;;;11.90
11321;BMP180;5715;48.234;14.320;2022-12-07T04:26:17;98374.00;;;11.90
11321;BMP180;5715;48.234;14.320;2022-12-07T04:29:04;98373.00;;;12.10
11321;BMP180;5715;48.234;14.320;2022-12-07T04:31:54;98373.00;;;12.00
11321;BMP180;5715;48.234;14.320;2022-12-07T04:34:42;98378.00;;;11.90
11321;BMP180;5715;48.234;14.320;2022-12-07T04:37:29;98378.00;;;11.80
11321;BMP180;5715;48.234;14.320;2022-12-07T04:40:17;98377.00;;;11.90
11321;BMP180;5715;48.234;14.320;2022-12-07T04:43:04;98371.00;;;11.70
11321;BMP180;5715;48.234;14.320;2022-12-07T04:45:52;98373.00;;;11.80
11321;BMP180;5715;48.234;14.320;2022-12-07T04:48:39;98376.00;;;11.80
11321;BMP180;5715;48.234;14.320;2022-12-07T04:51:29;98373.00;;;11.70
11321;BMP180;5715;48.234;14.320;2022-12-07T04:54:17;98372.00;;;11.60
11321;BMP180;5715;48.234;14.320;2022-12-07T04:57:04;98372.00;;;11.80
11321;BMP180;5715;48.234;14.320;2022-12-07T04:59:52;98367.00;;;11.60
11321;BMP180;5715;48.234;14.320;2022-12-07T05:02:39;98368.00;;;11.80
11321;BMP180;5715;48.234;14.320;2022-12-07T05:05:27;98372.00;;;11.70
11321;BMP180;5715;48.234;14.320;2022-12-07T05:08:14;98371.00;;;11.60
11321;BMP180;5715;48.234;14.320;2022-12-07T05:11:03;98372.00;;;11.70
11321;BMP180;5715;48.234;14.320;2022-12-07T05:13:51;98374.00;;;11.50
11321;BMP180;5715;48.234;14.320;2022-12-07T05:16:41;98375.00;;;11.80
11321;BMP180;5715;48.234;14.320;2022-12-07T05:19:28;98378.00;;;11.60
11321;BMP180;5715;48.234;14.320;2022-12-07T05:22:16;98374.00;;;11.70
11321;BMP180;5715;48.234;14.320;2022-12-07T05:25:04;98370.00;;;11.70
11321;BMP180;5715;48.234;14.320;2022-12-07T05:27:51;98367.00;;;11.40
11321;BMP180;5715;48.234;14.320;2022-12-07T05:30:39;98361.00;;;11.80
11321;BMP180;5715;48.234;14.320;2022-12-07T05:33:26;98362.00;;;11.70
11321;BMP180;5715;48.234;14.320;2022-12-07T05:36:14;98356.00;;;11.70
11321;BMP180;5715;48.234;14.320;2022-12-07T05:39:03;98343.00;;;11.60
11321;BMP180;5715;48.234;14.320;2022-12-07T05:41:50;98353.00;;;11.70
11321;BMP180;5715;48.234;14.320;2022-12-07T05:44:56;98363.00;;;11.80
11321;BMP180;5715;48.234;14.320;2022-12-07T05:47:44;98372.00;;;11.60
11321;BMP180;5715;48.234;14.320;2022-12-07T05:50:31;98368.00;;;11.60
11321;BMP180;5715;48.234;14.320;2022-12-07T05:53:19;98373.00;;;11.60
11321;BMP180;5715;48.234;14.320;2022-12-07T05:56:09;98378.00;;;11.40
11321;BMP180;5715;48.234;14.320;2022-12-07T05:58:57;98374.00;;;11.40
11321;BMP180;5715;48.234;14.320;2022-12-07T06:02:07;98380.00;;;11.50
11321;BMP180;5715;48.234;14.320;2022-12-07T06:04:55;98378.00;;;11.60
11321;BMP180;5715;48.234;14.320;2022-12-07T06:07:43;98379.00;;;11.40
11321;BMP180;5715;48.234;14.320;2022-12-07T06:10:30;98361.00;;;11.60
11321;BMP180;5715;48.234;14.320;2022-12-07T06:13:18;98377.00;;;11.60
11321;BMP180;5715;48.234;14.320;2022-12-07T06:16:07;98376.00;;;11.50
11321;BMP180;5715;48.234;14.320;2022-12-07T06:18:54;98381.00;;;11.70
11321;BMP180;5715;48.234;14.320;2022-12-07T06:21:42;98390.00;;;11.60
11321;BMP180;5715;48.234;14.320;2022-12-07T06:24:33;98391.00;;;11.60
11321;BMP180;5715;48.234;14.320;2022-12-07T06:27:20;98398.00;;;11.50
11321;BMP180;5715;48.234;14.320;2022-12-07T06:30:08;98392.00;;;11.60
11321;BMP180;5715;48.234;14.320;2022-12-07T06:32:56;98396.00;;;11.60
11321;BMP180;5715;48.234;14.320;2022-12-07T06:35:43;98406.00;;;11.50
11321;BMP180;5715;48.234;14.320;2022-12-07T06:38:31;98403.00;;;11.40
11321;BMP180;5715;48.234;14.320;2022-12-07T06:41:18;98408.00;;;11.50
11321;BMP180;5715;48.234;14.320;2022-12-07T06:44:07;98414.00;;;11.40
11321;BMP180;5715;48.234;14.320;2022-12-07T06:46:54;98414.00;;;11.60
11321;BMP180;5715;48.234;14.320;2022-12-07T06:50:02;98416.00;;;11.60
11321;BMP180;5715;48.234;14.320;2022-12-07T06:52:51;98410.00;;;11.60
11321;BMP180;5715;48.234;14.320;2022-12-07T06:55:40;98403.00;;;11.60
11321;BMP180;5715;48.234;14.320;2022-12-07T06:58:27;98406.00;;;11.60
11321;BMP180;5715;48.234;14.320;2022-12-07T07:01:17;98402.00;;;11.50
11321;BMP180;5715;48.234;14.320;2022-12-07T07:04:07;98404.00;;;11.50
11321;BMP180;5715;48.234;14.320;2022-12-07T07:06:54;98405.00;;;11.60
11321;BMP180;5715;48.234;14.320;2022-12-07T07:09:46;98410.00;;;11.70
11321;BMP180;5715;48.234;14.320;2022-12-07T07:12:33;98424.00;;;11.90
11321;BMP180;5715;48.234;14.320;2022-12-07T07:15:21;98415.00;;;11.70
11321;BMP180;5715;48.234;14.320;2022-12-07T07:18:08;98424.00;;;11.60
11321;BMP180;5715;48.234;14.320;2022-12-07T07:20:56;98425.00;;;11.80
11321;BMP180;5715;48.234;14.320;2022-12-07T07:23:44;98425.00;;;11.70
11321;BMP180;5715;48.234;14.320;2022-12-07T07:26:31;98427.00;;;11.60
11321;BMP180;5715;48.234;14.320;2022-12-07T07:29:19;98423.00;;;11.70
11321;BMP180;5715;48.234;14.320;2022-12-07T07:32:06;98439.00;;;11.90
11321;BMP180;5715;48.234;14.320;2022-12-07T07:34:54;98429.00;;;11.80
11321;BMP180;5715;48.234;14.320;2022-12-07T07:37:42;98433.00;;;11.90
11321;BMP180;5715;48.234;14.320;2022-12-07T07:40:30;98437.00;;;12.00
11321;BMP180;5715;48.234;14.320;2022-12-07T07:43:17;98440.00;;;12.00
11321;BMP180;5715;48.234;14.320;2022-12-07T07:46:04;98453.00;;;12.00
11321;BMP180;5715;48.234;14.320;2022-12-07T07:48:52;98446.00;;;12.20
11321;BMP180;5715;48.234;14.320;2022-12-07T07:51:39;98453.00;;;12.10
11321;BMP180;5715;48.234;14.320;2022-12-07T07:54:27;98450.00;;;11.90
11321;BMP180;5715;48.234;14.320;2022-12-07T07:57:17;98455.00;;;12.10
11321;BMP180;5715;48.234;14.320;2022-12-07T08:00:11;98451.00;;;12.00
11321;BMP180;5715;48.234;14.320;2022-12-07T08:02:59;98453.00;;;11.70
11321;BMP180;5715;48.234;14.320;2022-12-07T08:05:47;98451.00;;;12.10
11321;BMP180;5715;48.234;14.320;2022-12-07T08:08:34;98453.00;;;12.20
11321;BMP180;5715;48.234;14.320;2022-12-07T08:11:22;98455.00;;;11.90
11321;BMP180;5715;48.234;14.320;2022-12-07T08:14:11;98459.00;;;12.20
11321;BMP180;5715;48.234;14.320;2022-12-07T08:16:58;98463.00;;;12.30
11321;BMP180;5715;48.234;14.320;2022-12-07T08:19:46;98470.00;;;12.50
11321;BMP180;5715;48.234;14.320;2022-12-07T08:22:33;98465.00;;;12.50
11321;BMP180;5715;48.234;14.320;2022-12-07T08:25:21;98459.00;;;12.50
11321;BMP180;5715;48.234;14.320;2022-12-07T08:28:11;98460.00;;;12.90
11321;BMP180;5715;48.234;14.320;2022-12-07T08:31:05;98466.00;;;12.70
11321;BMP180;5715;48.234;14.320;2022-12-07T08:33:53;98469.00;;;12.30
11321;BMP180;5715;48.234;14.320;2022-12-07T08:36:41;98468.00;;;12.50
11321;BMP180;5715;48.234;14.320;2022-12-07T08:39:28;98468.00;;;12.70
11321;BMP180;5715;48.234;14.320;2022-12-07T08:42:18;98463.00;;;12.80
11321;BMP180;5715;48.234;14.320;2022-12-07T08:45:10;98456.00;;;12.80
11321;BMP180;5715;48.234;14.320;2022-12-07T08:48:06;98468.00;;;12.50
11321;BMP180;5715;48.234;14.320;2022-12-07T08:50:55;98460.00;;;12.80
11321;BMP180;5715;48.234;14.320;2022-12-07T08:53:43;98460.00;;;12.90
11321;BMP180;5715;48.234;14.320;2022-12-07T08:56:31;98466.00;;;13.10
11321;BMP180;5715;48.234;14.320;2022-12-07T08:59:20;98470.00;;;13.40
11321;BMP180;5715;48.234;14.320;2022-12-07T09:02:07;98476.00;;;13.30
11321;BMP180;5715;48.234;14.320;2022-12-07T09:04:55;98479.00;;;13.40
11321;BMP180;5715;48.234;14.320;2022-12-07T09:07:50;98476.00;;;13.20
11321;BMP180;5715;48.234;14.320;2022-12-07T09:10:38;98477.00;;;13.20
11321;BMP180;5715;48.234;14.320;2022-12-07T09:13:26;98477.00;;;13.00
11321;BMP180;5715;48.234;14.320;2022-12-07T09:16:14;98483.00;;;13.00
11321;BMP180;5715;48.234;14.320;2022-12-07T09:19:01;98478.00;;;13.10
11321;BMP180;5715;48.234;14.320;2022-12-07T09:21:49;98478.00;;;13.20
11321;BMP180;5715;48.234;14.320;2022-12-07T09:24:37;98477.00;;;13.40
11321;BMP180;5715;48.234;14.320;2022-12-07T09:27:24;98478.00;;;12.90
11321;BMP180;5715;48.234;14.320;2022-12-07T09:30:12;98479.00;;;13.40
11321;BMP180;5715;48.234;14.320;2022-12-07T09:33:00;98483.00;;;13.60
11321;BMP180;5715;48.234;14.320;2022-12-07T09:35:49;98487.00;;;13.50
11321;BMP180;5715;48.234;14.320;2022-12-07T09:38:38;98474.00;;;13.50
11321;BMP180;5715;48.234;14.320;2022-12-07T09:41:27;98471.00;;;13.60
11321;BMP180;5715;48.234;14.320;2022-12-07T09:44:25;98473.00;;;13.50
11321;BMP180;5715;48.234;14.320;2022-12-07T09:47:13;98473.00;;;13.30
11321;BMP180;5715;48.234;14.320;2022-12-07T09:50:17;98470.00;;;13.80
11321;BMP180;5715;48.234;14.320;2022-12-07T09:53:22;98471.00;;;13.60
11321;BMP180;5715;48.234;14.320;2022-12-07T09:56:14;98467.00;;;13.80
11321;BMP180;5715;48.234;14.320;2022-12-07T09:59:04;98460.00;;;13.60
11321;BMP180;5715;48.234;14.320;2022-12-07T10:01:51;98457.00;;;13.70
11321;BMP180;5715;48.234;14.320;2022-12-07T10:04:47;98461.00;;;13.30
11321;BMP180;5715;48.234;14.320;2022-12-07T10:07:34;98459.00;;;13.50
11321;BMP180;5715;48.234;14.320;2022-12-07T10:10:32;98459.00;;;13.70
11321;BMP180;5715;48.234;14.320;2022-12-07T10:13:40;98449.00;;;13.80
11321;BMP180;5715;48.234;14.320;2022-12-07T10:16:47;98443.00;;;13.80
11321;BMP180;5715;48.234;14.320;2022-12-07T10:19:35;98436.00;;;14.00
11321;BMP180;5715;48.234;14.320;2022-12-07T10:22:23;98447.00;;;14.20
11321;BMP180;5715;48.234;14.320;2022-12-07T10:25:21;98435.00;;;14.50
11321;BMP180;5715;48.234;14.320;2022-12-07T10:28:17;98435.00;;;14.80
11321;BMP180;5715;48.234;14.320;2022-12-07T10:31:22;98426.00;;;14.50
11321;BMP180;5715;48.234;14.320;2022-12-07T10:37:14;98435.00;;;14.50
11321;BMP180;5715;48.234;14.320;2022-12-07T10:40:30;98435.00;;;14.30
11321;BMP180;5715;48.234;14.320;2022-12-07T10:43:19;98432.00;;;13.90
11321;BMP180;5715;48.234;14.320;2022-12-07T11:06:14;98443.00;;;13.80
11321;BMP180;5715;48.234;14.320;2022-12-07T11:09:44;98442.00;;;13.70
11321;BMP180;5715;48.234;14.320;2022-12-07T11:24:10;98431.00;;;12.80
11321;BMP180;5715;48.234;14.320;2022-12-07T11:34:36;98412.00;;;13.10
11321;BMP180;5715;48.234;14.320;2022-12-07T11:37:33;98409.00;;;13.00
11321;BMP180;5715;48.234;14.320;2022-12-07T11:40:35;98403.00;;;13.10
11321;BMP180;5715;48.234;14.320;2022-12-07T11:43:32;98401.00;;;12.40
11321;BMP180;5715;48.234;14.320;2022-12-07T11:46:42;98404.00;;;13.00
11321;BMP180;5715;48.234;14.320;2022-12-07T11:52:47;98392.00;;;13.20
11321;BMP180;5715;48.234;14.320;2022-12-07T11:55:56;98391.00;;;13.40
11321;BMP180;5715;48.234;14.320;2022-12-07T12:04:58;98384.00;;;14.00
11321;BMP180;5715;48.234;14.320;2022-12-07T12:15:13;98380.00;;;14.40
11321;BMP180;5715;48.234;14.320;2022-12-07T12:18:36;98375.00;;;14.50
11321;BMP180;5715;48.234;14.320;2022-12-07T12:21:29;98371.00;;;14.40
11321;BMP180;5715;48.234;14.320;2022-12-07T12:24:26;98372.00;;;14.00
11321;BMP180;5715;48.234;14.320;2022-12-07T12:27:27;98367.00;;;14.30
11321;BMP180;5715;48.234;14.320;2022-12-07T12:31:13;98364.00;;;14.60
11321;BMP180;5715;48.234;14.320;2022-12-07T12:34:30;98363.00;;;14.00
11321;BMP180;5715;48.234;14.320;2022-12-07T12:43:46;98360.00;;;14.00
11321;BMP180;5715;48.234;14.320;2022-12-07T12:46:38;98351.00;;;14.00
11321;BMP180;5715;48.234;14.320;2022-12-07T12:49:42;98360.00;;;13.90
11321;BMP180;5715;48.234;14.320;2022-12-07T12:52:54;98349.00;;;14.10
11321;BMP180;5715;48.234;14.320;2022-12-07T12:58:40;98357.00;;;14.00
11321;BMP180;5715;48.234;14.320;2022-12-07T13:01:42;98357.00;;;13.90
11321;BMP180;5715;48.234;14.320;2022-12-07T13:07:54;98364.00;;;13.80
11321;BMP180;5715;48.234;14.320;2022-12-07T13:10:47;98354.00;;;13.70
11321;BMP180;5715;48.234;14.320;2022-12-07T13:13:35;98354.00;;;13.80
11321;BMP180;5715;48.234;14.320;2022-12-07T13:19:59;98360.00;;;13.60
11321;BMP180;5715;48.234;14.320;2022-12-07T13:22:49;98359.00;;;13.60
11321;BMP180;5715;48.234;14.320;2022-12-07T13:26:14;98355.00;;;13.60
11321;BMP180;5715;48.234;14.320;2022-12-07T13:29:18;98361.00;;;12.80
11321;BMP180;5715;48.234;14.320;2022-12-07T13:32:28;98363.00;;;13.30
11321;BMP180;5715;48.234;14.320;2022-12-07T13:35:31;98353.00;;;13.50
11321;BMP180;5715;48.234;14.320;2022-12-07T13:38:35;98352.00;;;13.30
11321;BMP180;5715;48.234;14.320;2022-12-07T13:41:29;98349.00;;;13.50
11321;BMP180;5715;48.234;14.320;2022-12-07T13:44:18;98357.00;;;13.50
11321;BMP180;5715;48.234;14.320;2022-12-07T13:49:57;98343.00;;;12.90
11321;BMP180;5715;48.234;14.320;2022-12-07T13:52:44;98345.00;;;13.30
11321;BMP180;5715;48.234;14.320;2022-12-07T13:55:32;98339.00;;;12.70
11321;BMP180;5715;48.234;14.320;2022-12-07T13:58:21;98335.00;;;13.00
11321;BMP180;5715;48.234;14.320;2022-12-07T14:01:09;98334.00;;;12.90
11321;BMP180;5715;48.234;14.320;2022-12-07T14:07:26;98338.00;;;13.30
11321;BMP180;5715;48.234;14.320;2022-12-07T14:10:31;98343.00;;;13.20
11321;BMP180;5715;48.234;14.320;2022-12-07T14:13:56;98345.00;;;13.10
11321;BMP180;5715;48.234;14.320;2022-12-07T14:19:51;98348.00;;;13.10
11321;BMP180;5715;48.234;14.320;2022-12-07T14:22:40;98341.00;;;12.90
11321;BMP180;5715;48.234;14.320;2022-12-07T14:25:27;98346.00;;;12.90
11321;BMP180;5715;48.234;14.320;2022-12-07T14:28:33;98350.00;;;12.90
11321;BMP180;5715;48.234;14.320;2022-12-07T14:31:24;98346.00;;;13.10
11321;BMP180;5715;48.234;14.320;2022-12-07T14:34:19;98351.00;;;13.00
11321;BMP180;5715;48.234;14.320;2022-12-07T14:37:09;98348.00;;;13.00
11321;BMP180;5715;48.234;14.320;2022-12-07T14:39:57;98347.00;;;12.80
11321;BMP180;5715;48.234;14.320;2022-12-07T14:42:50;98341.00;;;12.90
11321;BMP180;5715;48.234;14.320;2022-12-07T14:45:38;98340.00;;;12.90
11321;BMP180;5715;48.234;14.320;2022-12-07T14:48:26;98343.00;;;12.80
11321;BMP180;5715;48.234;14.320;2022-12-07T14:51:39;98346.00;;;12.70
11321;BMP180;5715;48.234;14.320;2022-12-07T14:54:47;98346.00;;;12.80
11321;BMP180;5715;48.234;14.320;2022-12-07T14:57:35;98345.00;;;12.60
11321;BMP180;5715;48.234;14.320;2022-12-07T15:00:26;98335.00;;;12.60
11321;BMP180;5715;48.234;14.320;2022-12-07T15:03:14;98338.00;;;12.50
11321;BMP180;5715;48.234;14.320;2022-12-07T15:06:03;98336.00;;;12.60
11321;BMP180;5715;48.234;14.320;2022-12-07T15:08:51;98334.00;;;12.50
11321;BMP180;5715;48.234;14.320;2022-12-07T15:11:39;98330.00;;;12.50
11321;BMP180;5715;48.234;14.320;2022-12-07T15:14:30;98335.00;;;12.40
11321;BMP180;5715;48.234;14.320;2022-12-07T15:17:18;98331.00;;;12.40
11321;BMP180;5715;48.234;14.320;2022-12-07T15:20:18;98330.00;;;12.40
11321;BMP180;5715;48.234;14.320;2022-12-07T15:23:06;98334.00;;;12.30
11321;BMP180;5715;48.234;14.320;2022-12-07T15:25:53;98324.00;;;12.30
11321;BMP180;5715;48.234;14.320;2022-12-07T15:28:41;98328.00;;;12.20
11321;BMP180;5715;48.234;14.320;2022-12-07T15:31:29;98327.00;;;12.10
11321;BMP180;5715;48.234;14.320;2022-12-07T15:34:37;98330.00;;;12.10
11321;BMP180;5715;48.234;14.320;2022-12-07T15:37:27;98329.00;;;12.10
11321;BMP180;5715;48.234;14.320;2022-12-07T15:40:14;98328.00;;;12.10
11321;BMP180;5715;48.234;14.320;2022-12-07T15:43:03;98329.00;;;12.10
11321;BMP180;5715;48.234;14.320;2022-12-07T15:45:51;98322.00;;;12.00
11321;BMP180;5715;48.234;14.320;2022-12-07T15:48:38;98322.00;;;11.90
11321;BMP180;5715;48.234;14.320;2022-12-07T15:51:26;98326.00;;;11.80
11321;BMP180;5715;48.234;14.320;2022-12-07T15:54:23;98325.00;;;11.80
11321;BMP180;5715;48.234;14.320;2022-12-07T15:57:11;98328.00;;;11.70
11321;BMP180;5715;48.234;14.320;2022-12-07T15:59:59;98322.00;;;11.60
11321;BMP180;5715;48.234;14.320;2022-12-07T16:02:46;98323.00;;;11.60
11321;BMP180;5715;48.234;14.320;2022-12-07T16:05:34;98327.00;;;11.60
11321;BMP180;5715;48.234;14.320;2022-12-07T16:08:21;98326.00;;;11.60
11321;BMP180;5715;48.234;14.320;2022-12-07T16:11:09;98334.00;;;11.60
11321;BMP180;5715;48.234;14.320;2022-12-07T16:13:57;98321.00;;;11.60
11321;BMP180;5715;48.234;14.320;2022-12-07T16:16:44;98324.00;;;11.60
11321;BMP180;5715;48.234;14.320;2022-12-07T16:19:33;98328.00;;;11.60
11321;BMP180;5715;48.234;14.320;2022-12-07T16:22:21;98331.00;;;11.60
11321;BMP180;5715;48.234;14.320;2022-12-07T16:25:09;98322.00;;;11.60
11321;BMP180;5715;48.234;14.320;2022-12-07T16:27:56;98325.00;;;11.60
11321;BMP180;5715;48.234;14.320;2022-12-07T16:30:44;98321.00;;;11.60
11321;BMP180;5715;48.234;14.320;2022-12-07T16:33:32;98322.00;;;11.70
11321;BMP180;5715;48.234;14.320;2022-12-07T16:36:19;98321.00;;;11.70
11321;BMP180;5715;48.234;14.320;2022-12-07T16:39:29;98329.00;;;11.60
11321;BMP180;5715;48.234;14.320;2022-12-07T16:42:16;98329.00;;;11.60
11321;BMP180;5715;48.234;14.320;2022-12-07T16:45:04;98330.00;;;11.50
11321;BMP180;5715;48.234;14.320;2022-12-07T16:47:52;98319.00;;;11.60
11321;BMP180;5715;48.234;14.320;2022-12-07T16:50:41;98324.00;;;11.60
11321;BMP180;5715;48.234;14.320;2022-12-07T16:53:39;98321.00;;;11.50
11321;BMP180;5715;48.234;14.320;2022-12-07T16:56:26;98316.00;;;11.50
11321;BMP180;5715;48.234;14.320;2022-12-07T16:59:16;98310.00;;;11.50
11321;BMP180;5715;48.234;14.320;2022-12-07T17:02:03;98326.00;;;11.50
11321;BMP180;5715;48.234;14.320;2022-12-07T17:04:52;98315.00;;;11.50
11321;BMP180;5715;48.234;14.320;2022-12-07T17:07:40;98316.00;;;11.40
11321;BMP180;5715;48.234;14.320;2022-12-07T17:10:27;98308.00;;;11.50
11321;BMP180;5715;48.234;14.320;2022-12-07T17:13:15;98320.00;;;11.60
11321;BMP180;5715;48.234;14.320;2022-12-07T17:16:21;98312.00;;;11.60
11321;BMP180;5715;48.234;14.320;2022-12-07T17:19:13;98310.00;;;11.70
11321;BMP180;5715;48.234;14.320;2022-12-07T17:22:00;98316.00;;;11.70
11321;BMP180;5715;48.234;14.320;2022-12-07T17:24:48;98314.00;;;11.70
11321;BMP180;5715;48.234;14.320;2022-12-07T17:27:36;98315.00;;;11.60
11321;BMP180;5715;48.234;14.320;2022-12-07T17:30:23;98318.00;;;11.70
11321;BMP180;5715;48.234;14.320;2022-12-07T17:33:11;98308.00;;;11.70
11321;BMP180;5715;48.234;14.320;2022-12-07T17:36:00;98313.00;;;11.70
11321;BMP180;5715;48.234;14.320;2022-12-07T17:38:49;98311.00;;;11.70
11321;BMP180;5715;48.234;14.320;2022-12-07T17:41:37;98313.00;;;11.70
11321;BMP180;5715;48.234;14.320;2022-12-07T17:44:43;98315.00;;;11.80
11321;BMP180;5715;48.234;14.320;2022-12-07T17:47:31;98316.00;;;11.80
11321;BMP180;5715;48.234;14.320;2022-12-07T17:50:18;98302.00;;;11.60
11321;BMP180;5715;48.234;14.320;2022-12-07T17:53:26;98306.00;;;11.60
11321;BMP180;5715;48.234;14.320;2022-12-07T17:56:13;98307.00;;;11.50
11321;BMP180;5715;48.234;14.320;2022-12-07T17:59:16;98302.00;;;11.50
11321;BMP180;5715;48.234;14.320;2022-12-07T18:02:04;98299.00;;;11.50
11321;BMP180;5715;48.234;14.320;2022-12-07T18:04:52;98301.00;;;11.50
11321;BMP180;5715;48.234;14.320;2022-12-07T18:07:39;98302.00;;;11.40
11321;BMP180;5715;48.234;14.320;2022-12-07T18:10:27;98291.00;;;11.40
11321;BMP180;5715;48.234;14.320;2022-12-07T18:13:14;98296.00;;;11.40
11321;BMP180;5715;48.234;14.320;2022-12-07T18:16:24;98303.00;;;11.30
11321;BMP180;5715;48.234;14.320;2022-12-07T18:19:13;98301.00;;;11.30
11321;BMP180;5715;48.234;14.320;2022-12-07T18:22:04;98292.00;;;11.30
11321;BMP180;5715;48.234;14.320;2022-12-07T18:24:52;98293.00;;;11.30
11321;BMP180;5715;48.234;14.320;2022-12-07T18:27:39;98297.00;;;11.30
11321;BMP180;5715;48.234;14.320;2022-12-07T18:30:27;98287.00;;;11.30